createdAt,value
2022-12-18T00:00:23.144Z,0.04
2022-12-18T00:00:55.254Z,0.01
2022-12-18T00:01:29.509Z,-0.01
2022-12-18T00:02:04.768Z,-0.01
2022-12-18T00:02:37.064Z,-0.01
2022-12-18T00:03:09.364Z,-0.06
2022-12-18T00:03:45.150Z,-0.05
2022-12-18T00:04:22.547Z,-0.03
2022-12-18T00:04:57.859Z,-0.02
2022-12-18T00:05:30.014Z,-0.01
2022-12-18T00:06:02.842Z,0.02
2022-12-18T00:06:38.562Z,0.01
2022-12-18T00:07:10.742Z,-0.05
2022-12-18T00:07:42.864Z,-0.01
2022-12-18T00:08:18.080Z,-0.06
2022-12-18T00:08:50.447Z,-0.06
2022-12-18T00:09:22.774Z,-0.07
2022-12-18T00:09:59.619Z,-0.13
2022-12-18T00:10:31.798Z,-0.12
2022-12-18T00:11:07.116Z,-0.19
2022-12-18T00:11:44.491Z,-0.28
2022-12-18T00:13:11.193Z,-0.23
2022-12-18T00:13:44.158Z,-0.24
2022-12-18T00:14:16.464Z,-0.23
2022-12-18T00:14:52.873Z,-0.21
2022-12-18T00:15:25.005Z,-0.18
2022-12-18T00:15:57.201Z,-0.18
2022-12-18T00:16:36.365Z,-0.17
2022-12-18T00:17:08.497Z,-0.17
2022-12-18T00:17:41.456Z,-0.14
2022-12-18T00:18:20.421Z,-0.17
2022-12-18T00:18:55.074Z,-0.21
2022-12-18T00:19:27.180Z,-0.19
2022-12-18T00:20:01.913Z,-0.15
2022-12-18T00:20:37.885Z,-0.19
2022-12-18T00:21:13.027Z,-0.23
2022-12-18T00:21:47.953Z,-0.20
2022-12-18T00:22:20.160Z,-0.21
2022-12-18T00:22:52.620Z,-0.23
2022-12-18T00:23:24.717Z,-0.19
2022-12-18T00:23:59.976Z,-0.17
2022-12-18T00:24:32.250Z,-0.13
2022-12-18T00:25:05.165Z,-0.14
2022-12-18T00:25:40.274Z,-0.14
2022-12-18T00:26:16.160Z,-0.12
2022-12-18T00:26:51.022Z,-0.12
2022-12-18T00:27:25.900Z,-0.12
2022-12-18T00:27:58.156Z,-0.13
2022-12-18T00:28:31.314Z,-0.14
2022-12-18T00:29:08.239Z,-0.11
2022-12-18T00:29:40.355Z,-0.13
2022-12-18T00:30:13.549Z,-0.12
2022-12-18T00:30:48.263Z,-0.11
2022-12-18T00:31:22.169Z,-0.09
2022-12-18T00:31:54.550Z,-0.09
2022-12-18T00:32:29.370Z,-0.07
2022-12-18T00:33:01.691Z,-0.08
2022-12-18T00:33:34.064Z,-0.14
2022-12-18T00:34:08.797Z,-0.16
2022-12-18T00:34:40.897Z,-0.10
2022-12-18T00:35:14.695Z,-0.08
2022-12-18T00:35:49.398Z,-0.12
2022-12-18T00:36:23.548Z,-0.11
2022-12-18T00:36:57.745Z,-0.11
2022-12-18T00:37:32.444Z,-0.09
2022-12-18T00:38:04.800Z,-0.09
2022-12-18T00:38:37.751Z,-0.07
2022-12-18T00:39:14.678Z,-0.05
2022-12-18T00:39:50.675Z,-0.09
2022-12-18T00:40:25.601Z,-0.10
2022-12-18T00:41:02.311Z,-0.09
2022-12-18T00:42:01.213Z,-0.10
2022-12-18T00:42:53.280Z,-0.13
2022-12-18T00:43:25.598Z,-0.14
2022-12-18T00:43:58.595Z,-0.21
2022-12-18T00:44:30.744Z,-0.21
2022-12-18T00:45:12.107Z,-0.21
2022-12-18T00:45:45.442Z,-0.24
2022-12-18T00:46:17.714Z,-0.23
2022-12-18T00:46:52.629Z,-0.21
2022-12-18T00:47:24.786Z,-0.22
2022-12-18T00:47:57.617Z,-0.19
2022-12-18T00:48:32.649Z,-0.21
2022-12-18T00:49:05.591Z,-0.21
2022-12-18T00:49:37.757Z,-0.28
2022-12-18T00:50:10.719Z,-0.29
2022-12-18T00:50:45.579Z,-0.29
2022-12-18T00:51:17.678Z,-0.33
2022-12-18T00:51:50.450Z,-0.33
2022-12-18T00:52:25.406Z,-0.30
2022-12-18T00:52:57.556Z,-0.30
2022-12-18T00:53:29.655Z,-0.35
2022-12-18T00:54:04.728Z,-0.35
2022-12-18T00:54:37.056Z,-0.37
2022-12-18T00:55:09.486Z,-0.38
2022-12-18T00:55:45.009Z,-0.37
2022-12-18T00:56:17.513Z,-0.42
2022-12-18T00:56:50.116Z,-0.50
2022-12-18T00:57:25.513Z,-0.52
2022-12-18T00:58:00.222Z,-0.52
2022-12-18T00:58:32.797Z,-0.51
2022-12-18T00:59:08.162Z,-0.52
2022-12-18T00:59:40.384Z,-0.55
2022-12-18T01:00:15.595Z,-0.51
2022-12-18T01:00:50.436Z,-0.52
2022-12-18T01:01:25.756Z,-0.55
2022-12-18T01:02:00.805Z,-0.53
2022-12-18T01:02:33.459Z,-0.53
2022-12-18T01:03:08.734Z,-0.51
2022-12-18T01:03:48.595Z,-0.48
2022-12-18T01:04:21.977Z,-0.54
2022-12-18T01:04:54.082Z,-0.53
2022-12-18T01:05:28.833Z,-0.55
2022-12-18T01:06:00.948Z,-0.56
2022-12-18T01:06:33.101Z,-0.58
2022-12-18T01:07:07.889Z,-0.59
2022-12-18T01:07:40.657Z,-0.64
2022-12-18T01:08:12.785Z,-0.60
2022-12-18T01:08:48.241Z,-0.61
2022-12-18T01:09:20.370Z,-0.63
2022-12-18T01:09:54.031Z,-0.66
2022-12-18T01:10:31.406Z,-0.70
2022-12-18T01:11:08.790Z,-0.69
2022-12-18T01:11:40.971Z,-0.70
2022-12-18T01:12:15.695Z,-0.68
2022-12-18T01:12:47.803Z,-0.74
2022-12-18T01:13:22.555Z,-0.67
2022-12-18T01:14:01.223Z,-0.66
2022-12-18T01:14:33.381Z,-0.65
2022-12-18T01:15:11.244Z,-0.67
2022-12-18T01:15:52.169Z,-0.71
2022-12-18T01:16:24.685Z,-0.72
2022-12-18T01:16:56.924Z,-0.82
2022-12-18T01:17:29.044Z,-0.85
2022-12-18T01:18:03.959Z,-0.98
2022-12-18T01:18:36.414Z,-0.99
2022-12-18T01:19:08.565Z,-1.03
2022-12-18T01:19:43.268Z,-1.03
2022-12-18T01:20:16.175Z,-0.98
2022-12-18T01:20:48.551Z,-1.06
2022-12-18T01:21:23.928Z,-1.01
2022-12-18T01:21:56.074Z,-0.98
2022-12-18T01:22:28.316Z,-0.98
2022-12-18T01:23:03.007Z,-0.98
2022-12-18T01:23:35.373Z,-0.98
2022-12-18T01:24:08.095Z,-0.95
2022-12-18T01:24:42.758Z,-0.92
2022-12-18T01:25:14.865Z,-0.88
2022-12-18T01:25:46.974Z,-0.88
2022-12-18T01:26:24.748Z,-0.86
2022-12-18T01:26:58.334Z,-0.83
2022-12-18T01:27:30.626Z,-0.75
2022-12-18T01:28:03.110Z,-0.76
2022-12-18T01:28:40.981Z,-0.77
2022-12-18T01:29:13.318Z,-0.76
2022-12-18T01:29:45.500Z,-0.73
2022-12-18T01:30:20.414Z,-0.75
2022-12-18T01:30:52.923Z,-0.74
2022-12-18T01:31:27.666Z,-0.74
2022-12-18T01:32:04.139Z,-0.73
2022-12-18T01:32:36.370Z,-0.71
2022-12-18T01:33:08.508Z,-0.73
2022-12-18T01:33:41.644Z,-0.74
2022-12-18T01:34:16.449Z,-0.72
2022-12-18T01:34:48.589Z,-0.69
2022-12-18T01:35:21.076Z,-0.75
2022-12-18T01:35:55.889Z,-0.75
2022-12-18T01:36:29.869Z,-0.77
2022-12-18T01:37:04.111Z,-0.79
2022-12-18T01:37:38.813Z,-0.77
2022-12-18T01:38:11.196Z,-0.84
2022-12-18T01:38:43.643Z,-0.79
2022-12-18T01:39:19.446Z,-0.79
2022-12-18T01:39:53.441Z,-0.77
2022-12-18T01:40:25.982Z,-0.79
2022-12-18T01:40:58.747Z,-0.76
2022-12-18T01:41:55.472Z,-0.81
2022-12-18T01:42:27.940Z,-0.83
2022-12-18T01:43:00.073Z,-0.88
2022-12-18T01:43:52.770Z,-0.92
2022-12-18T01:44:55.818Z,-0.88
2022-12-18T01:45:32.369Z,-0.94
2022-12-18T01:46:04.649Z,-0.97
2022-12-18T01:46:36.766Z,-0.98
2022-12-18T01:47:09.059Z,-0.99
2022-12-18T01:47:47.497Z,-1.00
2022-12-18T01:48:20.349Z,-1.00
2022-12-18T01:48:56.681Z,-0.95
2022-12-18T01:49:30.092Z,-1.00
2022-12-18T01:50:10.395Z,-0.98
2022-12-18T01:50:44.106Z,-0.97
2022-12-18T01:51:17.307Z,-0.96
2022-12-18T01:51:52.034Z,-0.94
2022-12-18T01:52:27.263Z,-0.99
2022-12-18T01:53:03.471Z,-0.98
2022-12-18T01:53:38.954Z,-0.96
2022-12-18T01:54:11.358Z,-0.96
2022-12-18T01:54:43.661Z,-0.98
2022-12-18T01:55:19.483Z,-0.98
2022-12-18T01:55:57.344Z,-0.96
2022-12-18T01:56:29.544Z,-0.97
2022-12-18T01:57:02.168Z,-1.01
2022-12-18T01:57:37.391Z,-1.01
2022-12-18T01:58:09.994Z,-1.13
2022-12-18T01:58:52.823Z,-1.13
2022-12-18T01:59:27.826Z,-1.20
2022-12-18T02:00:04.844Z,-1.22
2022-12-18T02:00:45.141Z,-1.27
2022-12-18T02:01:20.357Z,-1.26
2022-12-18T02:01:52.632Z,-1.28
2022-12-18T02:02:25.190Z,-1.27
2022-12-18T02:03:00.734Z,-1.27
2022-12-18T02:03:33.238Z,-1.28
2022-12-18T02:04:22.385Z,-1.24
2022-12-18T02:04:57.111Z,-1.23
2022-12-18T02:05:42.041Z,-1.30
2022-12-18T02:06:23.485Z,-1.29
2022-12-18T02:07:07.778Z,-1.29
2022-12-18T02:07:47.966Z,-1.24
2022-12-18T02:08:26.000Z,-1.25
2022-12-18T02:09:07.083Z,-1.32
2022-12-18T02:09:48.119Z,-1.35
2022-12-18T02:10:28.546Z,-1.43
2022-12-18T02:11:05.426Z,-1.44
2022-12-18T02:11:53.226Z,-1.41
2022-12-18T02:12:30.207Z,-1.39
2022-12-18T02:13:12.704Z,-1.39
2022-12-18T02:13:55.210Z,-1.44
2022-12-18T02:14:37.680Z,-1.40
2022-12-18T02:15:19.992Z,-1.47
2022-12-18T02:16:05.077Z,-1.46
2022-12-18T02:16:47.338Z,-1.45
2022-12-18T02:17:22.509Z,-1.51
2022-12-18T02:18:03.878Z,-1.48
2022-12-18T02:18:39.662Z,-1.51
2022-12-18T02:19:28.333Z,-1.53
2022-12-18T02:20:14.980Z,-1.48
2022-12-18T02:20:50.244Z,-1.55
2022-12-18T02:21:29.917Z,-1.48
2022-12-18T02:22:15.831Z,-1.50
2022-12-18T02:23:04.948Z,-1.50
2022-12-18T02:23:48.477Z,-1.52
2022-12-18T02:24:34.974Z,-1.54
2022-12-18T02:25:27.062Z,-1.56
2022-12-18T02:26:10.390Z,-1.56
2022-12-18T02:26:46.878Z,-1.55
2022-12-18T02:27:22.565Z,-1.52
2022-12-18T02:27:58.425Z,-1.51
2022-12-18T02:28:35.825Z,-1.49
2022-12-18T02:29:15.773Z,-1.50
2022-12-18T02:29:57.622Z,-1.50
2022-12-18T02:30:36.071Z,-1.53
2022-12-18T02:31:15.491Z,-1.53
2022-12-18T02:31:53.141Z,-1.50
2022-12-18T02:32:31.315Z,-1.52
2022-12-18T02:33:06.158Z,-1.54
2022-12-18T02:33:41.374Z,-1.50
2022-12-18T02:34:17.274Z,-1.49
2022-12-18T02:34:51.853Z,-1.45
2022-12-18T02:35:27.041Z,-1.46
2022-12-18T02:36:05.456Z,-1.43
2022-12-18T02:36:42.948Z,-1.55
2022-12-18T02:37:19.417Z,-1.56
2022-12-18T02:37:57.830Z,-1.53
2022-12-18T02:38:32.474Z,-1.53
2022-12-18T02:39:17.475Z,-1.55
2022-12-18T02:40:05.881Z,-1.58
2022-12-18T02:40:42.063Z,-1.61
2022-12-18T02:41:21.191Z,-1.64
2022-12-18T02:41:53.731Z,-1.60
2022-12-18T02:42:29.456Z,-1.61
2022-12-18T02:43:07.110Z,-1.62
2022-12-18T02:43:39.641Z,-1.63
2022-12-18T02:44:14.825Z,-1.57
2022-12-18T02:44:55.261Z,-1.55
2022-12-18T02:45:30.331Z,-1.55
2022-12-18T02:46:26.863Z,-1.65
2022-12-18T02:47:02.101Z,-1.61
2022-12-18T02:47:39.394Z,-1.72
2022-12-18T02:48:12.525Z,-1.77
2022-12-18T02:48:44.880Z,-1.68
2022-12-18T02:49:34.827Z,-1.68
2022-12-18T02:50:14.849Z,-1.73
2022-12-18T02:51:00.199Z,-1.67
2022-12-18T02:51:44.005Z,-1.64
2022-12-18T02:52:26.141Z,-1.61
2022-12-18T02:53:13.991Z,-1.59
2022-12-18T02:53:54.644Z,-1.63
2022-12-18T02:54:40.234Z,-1.63
2022-12-18T02:55:26.275Z,-1.69
2022-12-18T02:56:08.328Z,-1.72
2022-12-18T02:56:49.826Z,-1.68
2022-12-18T02:57:37.318Z,-1.62
2022-12-18T02:58:17.432Z,-1.63
2022-12-18T02:59:00.047Z,-1.65
2022-12-18T02:59:52.478Z,-1.60
2022-12-18T03:00:28.146Z,-1.63
2022-12-18T03:01:04.660Z,-1.66
2022-12-18T03:01:45.746Z,-1.65
2022-12-18T03:02:24.269Z,-1.71
2022-12-18T03:03:07.963Z,-1.73
2022-12-18T03:03:44.171Z,-1.78
2022-12-18T03:04:25.321Z,-1.74
2022-12-18T03:05:02.323Z,-1.79
2022-12-18T03:05:43.393Z,-1.76
2022-12-18T03:06:23.328Z,-1.74
2022-12-18T03:06:59.309Z,-1.71
2022-12-18T03:07:41.690Z,-1.73
2022-12-18T03:08:20.425Z,-1.75
2022-12-18T03:08:58.721Z,-1.73
2022-12-18T03:09:39.003Z,-1.73
2022-12-18T03:10:16.153Z,-1.69
2022-12-18T03:10:54.677Z,-1.66
2022-12-18T03:11:44.761Z,-1.65
2022-12-18T03:12:26.614Z,-1.70
2022-12-18T03:13:05.930Z,-1.69
2022-12-18T03:13:46.531Z,-1.69
2022-12-18T03:14:22.861Z,-1.68
2022-12-18T03:15:03.508Z,-1.67
2022-12-18T03:15:41.131Z,-1.72
2022-12-18T03:16:24.048Z,-1.81
2022-12-18T03:17:00.861Z,-1.76
2022-12-18T03:17:37.531Z,-1.74
2022-12-18T03:18:14.776Z,-1.75
2022-12-18T03:18:51.820Z,-1.74
2022-12-18T03:19:30.559Z,-1.74
2022-12-18T03:20:05.748Z,-1.81
2022-12-18T03:20:43.166Z,-1.82
2022-12-18T03:21:23.685Z,-1.79
2022-12-18T03:21:59.870Z,-1.84
2022-12-18T03:22:35.067Z,-1.84
2022-12-18T03:23:14.844Z,-1.83
2022-12-18T03:23:52.878Z,-1.83
2022-12-18T03:24:30.763Z,-1.82
2022-12-18T03:25:06.015Z,-1.84
2022-12-18T03:25:46.651Z,-1.81
2022-12-18T03:26:27.054Z,-1.81
2022-12-18T03:27:07.456Z,-1.84
2022-12-18T03:27:49.563Z,-1.83
2022-12-18T03:28:23.922Z,-1.78
2022-12-18T03:29:10.093Z,-1.83
2022-12-18T03:29:47.718Z,-1.86
2022-12-18T03:30:26.003Z,-1.86
2022-12-18T03:31:09.434Z,-1.86
2022-12-18T03:31:51.731Z,-1.88
2022-12-18T03:32:30.425Z,-1.88
2022-12-18T03:33:13.869Z,-1.93
2022-12-18T03:34:01.472Z,-1.91
2022-12-18T03:34:45.507Z,-1.96
2022-12-18T03:35:24.134Z,-2.02
2022-12-18T03:36:01.521Z,-2.02
2022-12-18T03:36:39.102Z,-2.04
2022-12-18T03:37:11.705Z,-2.04
2022-12-18T03:37:46.742Z,-2.00
2022-12-18T03:38:22.035Z,-1.99
2022-12-18T03:38:59.918Z,-2.00
2022-12-18T03:39:33.893Z,-2.04
2022-12-18T03:40:10.257Z,-2.02
2022-12-18T03:40:52.414Z,-1.94
2022-12-18T03:41:34.949Z,-1.96
2022-12-18T03:42:32.223Z,-1.96
2022-12-18T03:43:20.485Z,-1.95
2022-12-18T03:44:00.702Z,-1.94
2022-12-18T03:44:42.124Z,-1.92
2022-12-18T03:45:23.515Z,-1.91
2022-12-18T03:46:06.363Z,-1.96
2022-12-18T03:46:48.160Z,-1.95
2022-12-18T03:47:28.911Z,-1.95
2022-12-18T03:48:13.430Z,-1.97
2022-12-18T03:48:53.585Z,-1.96
2022-12-18T03:49:34.777Z,-2.02
2022-12-18T03:50:16.459Z,-2.02
2022-12-18T03:50:59.650Z,-2.07
2022-12-18T03:51:42.980Z,-2.05
2022-12-18T03:52:21.757Z,-2.01
2022-12-18T03:53:03.022Z,-2.09
2022-12-18T03:53:41.578Z,-2.09
2022-12-18T03:54:16.063Z,-2.10
2022-12-18T03:54:58.436Z,-2.05
2022-12-18T03:55:36.663Z,-2.06
2022-12-18T03:56:12.994Z,-2.04
2022-12-18T03:56:54.939Z,-2.03
2022-12-18T03:57:30.784Z,-1.99
2022-12-18T03:58:06.537Z,-2.02
2022-12-18T03:58:59.989Z,-2.11
2022-12-18T03:59:36.363Z,-2.12
2022-12-18T04:00:17.450Z,-2.15
2022-12-18T04:01:17.959Z,-2.18
2022-12-18T04:01:56.581Z,-2.14
2022-12-18T04:02:31.651Z,-2.14
2022-12-18T04:03:07.173Z,-2.15
2022-12-18T04:03:52.009Z,-2.15
2022-12-18T04:04:26.842Z,-2.19
2022-12-18T04:05:04.098Z,-2.19
2022-12-18T04:05:40.729Z,-2.19
2022-12-18T04:06:15.065Z,-2.13
2022-12-18T04:06:50.456Z,-2.13
2022-12-18T04:07:29.626Z,-2.10
2022-12-18T04:08:04.272Z,-2.18
2022-12-18T04:08:41.082Z,-2.19
2022-12-18T04:09:18.956Z,-2.19
2022-12-18T04:09:59.336Z,-2.13
2022-12-18T04:10:32.746Z,-2.15
2022-12-18T04:11:10.351Z,-2.16
2022-12-18T04:11:44.878Z,-2.13
2022-12-18T04:12:19.095Z,-2.13
2022-12-18T04:12:59.681Z,-2.12
2022-12-18T04:13:35.845Z,-2.13
2022-12-18T04:14:18.212Z,-2.14
2022-12-18T04:14:53.736Z,-2.12
2022-12-18T04:15:26.157Z,-2.12
2022-12-18T04:16:03.310Z,-2.07
2022-12-18T04:16:35.506Z,-2.09
2022-12-18T04:17:09.714Z,-2.08
2022-12-18T04:17:53.361Z,-2.07
2022-12-18T04:18:29.518Z,-2.11
2022-12-18T04:19:01.979Z,-2.21
2022-12-18T04:19:39.499Z,-2.18
2022-12-18T04:20:13.265Z,-2.17
2022-12-18T04:20:48.759Z,-2.16
2022-12-18T04:21:25.793Z,-2.18
2022-12-18T04:22:00.498Z,-2.17
2022-12-18T04:22:33.510Z,-2.22
2022-12-18T04:23:08.243Z,-2.23
2022-12-18T04:23:43.434Z,-2.23
2022-12-18T04:24:15.972Z,-2.18
2022-12-18T04:24:57.368Z,-2.19
2022-12-18T04:25:40.107Z,-2.17
2022-12-18T04:26:18.204Z,-2.16
2022-12-18T04:27:13.623Z,-2.20
2022-12-18T04:27:49.848Z,-2.24
2022-12-18T04:28:22.248Z,-2.19
2022-12-18T04:28:57.011Z,-2.16
2022-12-18T04:29:32.107Z,-2.13
2022-12-18T04:30:08.977Z,-2.15
2022-12-18T04:30:43.821Z,-2.14
2022-12-18T04:31:16.325Z,-2.11
2022-12-18T04:31:48.621Z,-2.13
2022-12-18T04:32:24.218Z,-2.20
2022-12-18T04:32:56.900Z,-2.19
2022-12-18T04:33:32.081Z,-2.16
2022-12-18T04:34:07.642Z,-2.10
2022-12-18T04:34:45.700Z,-2.15
2022-12-18T04:35:18.013Z,-2.18
2022-12-18T04:35:53.398Z,-2.17
2022-12-18T04:36:25.596Z,-2.25
2022-12-18T04:36:58.408Z,-2.20
2022-12-18T04:37:34.193Z,-2.18
2022-12-18T04:38:07.076Z,-2.18
2022-12-18T04:38:41.866Z,-2.19
2022-12-18T04:39:19.671Z,-2.15
2022-12-18T04:39:54.021Z,-2.21
2022-12-18T04:40:35.329Z,-2.21
2022-12-18T04:41:09.334Z,-2.23
2022-12-18T04:41:42.261Z,-2.17
2022-12-18T04:42:17.471Z,-2.18
2022-12-18T04:42:49.719Z,-2.16
2022-12-18T04:43:22.000Z,-2.17
2022-12-18T04:43:56.731Z,-2.22
2022-12-18T04:44:31.616Z,-2.21
2022-12-18T04:45:04.453Z,-2.19
2022-12-18T04:45:39.483Z,-2.17
2022-12-18T04:46:12.941Z,-2.17
2022-12-18T04:46:45.167Z,-2.19
2022-12-18T04:47:20.047Z,-2.18
2022-12-18T04:47:52.259Z,-2.16
2022-12-18T04:48:24.412Z,-2.13
2022-12-18T04:48:56.509Z,-2.13
2022-12-18T04:49:31.269Z,-2.14
2022-12-18T04:50:03.495Z,-2.19
2022-12-18T04:50:35.791Z,-2.17
2022-12-18T04:51:08.406Z,-2.17
2022-12-18T04:51:43.311Z,-2.21
2022-12-18T04:52:15.871Z,-2.29
2022-12-18T04:52:47.995Z,-2.31
2022-12-18T04:53:22.739Z,-2.32
2022-12-18T04:53:55.242Z,-2.27
2022-12-18T04:54:27.318Z,-2.30
2022-12-18T04:55:02.089Z,-2.32
2022-12-18T04:55:34.268Z,-2.29
2022-12-18T04:56:08.781Z,-2.26
2022-12-18T04:56:46.268Z,-2.24
2022-12-18T04:57:19.527Z,-2.27
2022-12-18T04:57:51.693Z,-2.24
2022-12-18T04:58:26.571Z,-2.22
2022-12-18T04:58:58.768Z,-2.34
2022-12-18T04:59:33.453Z,-2.34
2022-12-18T05:00:09.809Z,-2.34
2022-12-18T05:00:41.953Z,-2.30
2022-12-18T05:01:16.639Z,-2.30
2022-12-18T05:01:51.711Z,-2.27
2022-12-18T05:02:24.146Z,-2.28
2022-12-18T05:02:56.482Z,-2.32
2022-12-18T05:03:31.514Z,-2.30
2022-12-18T05:04:04.412Z,-2.30
2022-12-18T05:04:36.689Z,-2.31
2022-12-18T05:05:14.386Z,-2.32
2022-12-18T05:05:46.952Z,-2.31
2022-12-18T05:06:19.065Z,-2.36
2022-12-18T05:06:53.773Z,-2.41
2022-12-18T05:07:27.835Z,-2.39
2022-12-18T05:07:59.939Z,-2.56
2022-12-18T05:08:32.649Z,-2.52
2022-12-18T05:09:07.511Z,-2.49
2022-12-18T05:09:39.633Z,-2.45
2022-12-18T05:10:11.981Z,-2.44
2022-12-18T05:10:44.238Z,-2.43
2022-12-18T05:11:19.481Z,-2.43
2022-12-18T05:11:51.595Z,-2.45
2022-12-18T05:12:25.279Z,-2.44
2022-12-18T05:13:02.646Z,-2.44
2022-12-18T05:13:41.336Z,-2.43
2022-12-18T05:14:13.914Z,-2.41
2022-12-18T05:14:48.996Z,-2.40
2022-12-18T05:15:23.952Z,-2.39
2022-12-18T05:15:56.807Z,-2.36
2022-12-18T05:16:29.045Z,-2.35
2022-12-18T05:17:03.771Z,-2.40
2022-12-18T05:17:35.864Z,-2.41
2022-12-18T05:18:07.976Z,-2.39
2022-12-18T05:18:40.725Z,-2.44
2022-12-18T05:19:15.594Z,-2.46
2022-12-18T05:19:47.714Z,-2.57
2022-12-18T05:20:20.175Z,-2.55
2022-12-18T05:20:55.896Z,-2.60
2022-12-18T05:21:28.020Z,-2.59
2022-12-18T05:22:00.142Z,-2.56
2022-12-18T05:22:35.973Z,-2.58
2022-12-18T05:23:08.084Z,-2.57
2022-12-18T05:23:40.576Z,-2.53
2022-12-18T05:24:15.671Z,-2.48
2022-12-18T05:24:48.161Z,-2.44
2022-12-18T05:25:22.066Z,-2.46
2022-12-18T05:25:58.529Z,-2.48
2022-12-18T05:26:30.647Z,-2.56
2022-12-18T05:27:07.656Z,-2.51
2022-12-18T05:27:39.782Z,-2.53
2022-12-18T05:28:17.594Z,-2.53
2022-12-18T05:28:49.720Z,-2.52
2022-12-18T05:29:22.132Z,-2.47
2022-12-18T05:29:59.477Z,-2.48
2022-12-18T05:30:31.581Z,-2.48
2022-12-18T05:31:05.625Z,-2.50
2022-12-18T05:31:40.699Z,-2.46
2022-12-18T05:32:14.315Z,-2.48
2022-12-18T05:32:46.437Z,-2.54
2022-12-18T05:33:18.758Z,-2.52
2022-12-18T05:33:53.509Z,-2.53
2022-12-18T05:34:28.523Z,-2.53
2022-12-18T05:35:00.678Z,-2.54
2022-12-18T05:35:34.633Z,-2.53
2022-12-18T05:36:12.432Z,-2.53
2022-12-18T05:36:44.706Z,-2.53
2022-12-18T05:37:18.019Z,-2.52
2022-12-18T05:37:52.742Z,-2.51
2022-12-18T05:38:26.605Z,-2.52
2022-12-18T05:38:59.112Z,-2.53
2022-12-18T05:39:33.914Z,-2.58
2022-12-18T05:40:07.699Z,-2.58
2022-12-18T05:40:43.583Z,-2.53
2022-12-18T05:41:20.123Z,-2.58
2022-12-18T05:41:52.234Z,-2.60
2022-12-18T05:42:24.388Z,-2.59
2022-12-18T05:43:00.217Z,-2.56
2022-12-18T05:43:34.949Z,-2.55
2022-12-18T05:44:08.510Z,-2.54
2022-12-18T05:44:43.212Z,-2.52
2022-12-18T05:45:19.215Z,-2.57
2022-12-18T05:45:52.497Z,-2.52
2022-12-18T05:46:30.804Z,-2.52
2022-12-18T05:47:03.014Z,-2.55
2022-12-18T05:47:35.548Z,-2.56
2022-12-18T05:48:11.091Z,-2.49
2022-12-18T05:48:43.889Z,-2.57
2022-12-18T05:49:15.993Z,-2.62
2022-12-18T05:49:50.728Z,-2.59
2022-12-18T05:50:22.822Z,-2.62
2022-12-18T05:50:54.896Z,-2.71
2022-12-18T05:51:31.393Z,-2.72
2022-12-18T05:52:03.508Z,-2.64
2022-12-18T05:52:35.602Z,-2.71
2022-12-18T05:53:11.712Z,-2.70
2022-12-18T05:53:44.080Z,-2.78
2022-12-18T05:54:16.336Z,-2.82
2022-12-18T05:54:51.031Z,-2.92
2022-12-18T05:55:23.153Z,-2.90
2022-12-18T05:55:55.927Z,-2.92
2022-12-18T05:56:30.619Z,-3.02
2022-12-18T05:57:02.823Z,-2.99
2022-12-18T05:57:34.989Z,-2.95
2022-12-18T05:58:10.889Z,-2.97
2022-12-18T05:58:43.443Z,-2.93
2022-12-18T05:59:15.634Z,-2.90
2022-12-18T05:59:50.359Z,-2.84
2022-12-18T06:00:29.236Z,-2.94
2022-12-18T06:01:08.159Z,-2.88
2022-12-18T06:01:44.299Z,-2.85
2022-12-18T06:02:16.641Z,-2.89
2022-12-18T06:02:49.050Z,-2.86
2022-12-18T06:03:26.832Z,-2.82
2022-12-18T06:04:01.479Z,-2.86
2022-12-18T06:04:34.013Z,-2.82
2022-12-18T06:05:10.160Z,-2.83
2022-12-18T06:05:44.486Z,-2.87
2022-12-18T06:06:18.003Z,-2.88
2022-12-18T06:06:52.826Z,-2.85
2022-12-18T06:07:26.117Z,-2.85
2022-12-18T06:07:58.411Z,-2.81
2022-12-18T06:08:33.325Z,-2.79
2022-12-18T06:09:09.351Z,-2.76
2022-12-18T06:09:44.812Z,-2.72
2022-12-18T06:10:19.709Z,-2.72
2022-12-18T06:10:53.544Z,-2.71
2022-12-18T06:11:27.081Z,-2.69
2022-12-18T06:12:01.891Z,-2.69
2022-12-18T06:12:34.592Z,-2.81
2022-12-18T06:13:08.059Z,-2.85
2022-12-18T06:13:43.258Z,-2.84
2022-12-18T06:14:18.302Z,-2.84
2022-12-18T06:14:50.450Z,-2.80
2022-12-18T06:15:27.740Z,-2.79
2022-12-18T06:16:05.891Z,-2.80
2022-12-18T06:16:38.240Z,-2.78
2022-12-18T06:17:15.922Z,-2.75
2022-12-18T06:17:48.017Z,-2.85
2022-12-18T06:18:20.131Z,-2.85
2022-12-18T06:18:54.944Z,-2.83
2022-12-18T06:19:27.255Z,-2.81
2022-12-18T06:19:59.891Z,-2.79
2022-12-18T06:20:34.775Z,-2.81
2022-12-18T06:21:09.147Z,-2.82
2022-12-18T06:21:41.245Z,-2.81
2022-12-18T06:22:17.082Z,-2.92
2022-12-18T06:22:49.318Z,-2.89
2022-12-18T06:23:21.773Z,-2.88
2022-12-18T06:23:56.646Z,-2.90
2022-12-18T06:24:29.196Z,-2.89
2022-12-18T06:25:01.458Z,-2.95
2022-12-18T06:25:36.958Z,-2.94
2022-12-18T06:26:10.907Z,-2.90
2022-12-18T06:26:43.101Z,-2.91
2022-12-18T06:27:18.172Z,-2.89
2022-12-18T06:27:50.256Z,-2.88
2022-12-18T06:28:22.593Z,-2.90
2022-12-18T06:28:57.492Z,-2.95
2022-12-18T06:29:29.900Z,-2.98
2022-12-18T06:30:03.053Z,-2.90
2022-12-18T06:30:41.126Z,-2.85
2022-12-18T06:31:13.672Z,-2.81
2022-12-18T06:31:45.939Z,-2.79
2022-12-18T06:32:20.824Z,-2.77
2022-12-18T06:32:56.738Z,-2.78
2022-12-18T06:33:29.457Z,-2.76
2022-12-18T06:34:08.890Z,-2.79
2022-12-18T06:34:41.234Z,-2.82
2022-12-18T06:35:16.475Z,-2.83
2022-12-18T06:35:51.225Z,-2.84
2022-12-18T06:36:23.439Z,-2.83
2022-12-18T06:36:55.545Z,-2.81
2022-12-18T06:37:30.641Z,-2.81
2022-12-18T06:38:02.852Z,-2.81
2022-12-18T06:38:36.085Z,-2.80
2022-12-18T06:39:11.000Z,-2.77
2022-12-18T06:39:43.285Z,-2.79
2022-12-18T06:40:15.597Z,-2.77
2022-12-18T06:40:47.839Z,-2.78
2022-12-18T06:41:24.898Z,-2.76
2022-12-18T06:41:57.192Z,-2.78
2022-12-18T06:42:30.029Z,-2.79
2022-12-18T06:43:07.144Z,-2.76
2022-12-18T06:43:42.156Z,-2.78
2022-12-18T06:44:14.726Z,-2.81
2022-12-18T06:44:49.433Z,-2.81
2022-12-18T06:45:21.537Z,-2.82
2022-12-18T06:46:01.806Z,-2.80
2022-12-18T06:46:36.826Z,-2.81
2022-12-18T06:47:08.938Z,-2.80
2022-12-18T06:47:41.181Z,-2.77
2022-12-18T06:48:15.858Z,-2.76
2022-12-18T06:48:50.095Z,-2.73
2022-12-18T06:49:25.079Z,-2.73
2022-12-18T06:50:03.532Z,-2.70
2022-12-18T06:50:35.747Z,-2.70
2022-12-18T06:51:07.966Z,-2.68
2022-12-18T06:51:44.261Z,-2.69
2022-12-18T06:52:17.716Z,-2.76
2022-12-18T06:52:49.820Z,-2.74
2022-12-18T06:53:24.686Z,-2.72
2022-12-18T06:53:57.202Z,-2.72
2022-12-18T06:54:31.574Z,-2.70
2022-12-18T06:55:07.430Z,-2.71
2022-12-18T06:55:39.626Z,-2.71
2022-12-18T06:56:12.220Z,-2.75
2022-12-18T06:56:49.008Z,-2.76
2022-12-18T06:57:21.131Z,-2.78
2022-12-18T06:57:53.364Z,-2.75
2022-12-18T06:58:28.154Z,-2.74
2022-12-18T06:59:00.303Z,-2.72
2022-12-18T06:59:35.023Z,-2.69
2022-12-18T07:00:08.831Z,-2.71
2022-12-18T07:00:41.098Z,-2.73
2022-12-18T07:01:18.515Z,-2.74
2022-12-18T07:01:50.919Z,-2.74
2022-12-18T07:02:24.742Z,-2.73
2022-12-18T07:02:59.583Z,-2.75
2022-12-18T07:03:32.187Z,-2.79
2022-12-18T07:04:04.335Z,-2.74
2022-12-18T07:04:39.579Z,-2.77
2022-12-18T07:05:11.669Z,-2.77
2022-12-18T07:05:43.747Z,-2.75
2022-12-18T07:06:23.694Z,-2.80
2022-12-18T07:06:55.905Z,-2.84
2022-12-18T07:07:28.041Z,-2.85
2022-12-18T07:08:03.425Z,-2.83
2022-12-18T07:08:35.871Z,-2.82
2022-12-18T07:09:08.106Z,-2.82
2022-12-18T07:09:43.021Z,-2.91
2022-12-18T07:10:15.144Z,-2.92
2022-12-18T07:10:50.672Z,-2.89
2022-12-18T07:11:28.022Z,-2.86
2022-12-18T07:12:00.389Z,-2.87
2022-12-18T07:12:32.524Z,-2.89
2022-12-18T07:13:07.741Z,-2.87
2022-12-18T07:13:40.377Z,-2.83
2022-12-18T07:14:12.669Z,-2.81
2022-12-18T07:14:50.168Z,-2.81
2022-12-18T07:15:22.308Z,-2.83
2022-12-18T07:15:54.444Z,-2.82
2022-12-18T07:16:32.165Z,-2.85
2022-12-18T07:17:07.598Z,-2.94
2022-12-18T07:17:42.727Z,-2.91
2022-12-18T07:18:17.449Z,-2.88
2022-12-18T07:18:58.437Z,-2.81
2022-12-18T07:19:33.518Z,-2.92
2022-12-18T07:20:06.691Z,-2.93
2022-12-18T07:20:38.869Z,-2.96
2022-12-18T07:21:15.522Z,-2.94
2022-12-18T07:21:47.736Z,-2.97
2022-12-18T07:22:19.836Z,-2.96
2022-12-18T07:22:57.142Z,-2.98
2022-12-18T07:23:29.352Z,-2.98
2022-12-18T07:24:01.593Z,-3.00
2022-12-18T07:24:36.724Z,-2.97
2022-12-18T07:25:09.668Z,-2.97
2022-12-18T07:25:41.920Z,-3.01
2022-12-18T07:26:18.329Z,-3.04
2022-12-18T07:26:50.665Z,-3.01
2022-12-18T07:27:23.290Z,-3.07
2022-12-18T07:27:55.878Z,-3.07
2022-12-18T07:28:30.612Z,-3.18
2022-12-18T07:29:02.879Z,-3.21
2022-12-18T07:29:35.019Z,-3.21
2022-12-18T07:30:11.745Z,-3.26
2022-12-18T07:30:43.873Z,-3.22
2022-12-18T07:31:20.212Z,-3.19
2022-12-18T07:31:59.218Z,-3.30
2022-12-18T07:32:31.950Z,-3.30
2022-12-18T07:33:04.202Z,-3.26
2022-12-18T07:33:39.791Z,-3.23
2022-12-18T07:34:13.093Z,-3.22
2022-12-18T07:34:45.306Z,-3.18
2022-12-18T07:35:25.027Z,-3.19
2022-12-18T07:35:57.559Z,-3.23
2022-12-18T07:36:32.271Z,-3.17
2022-12-18T07:37:04.627Z,-3.19
2022-12-18T07:37:36.801Z,-3.18
2022-12-18T07:38:11.535Z,-3.16
2022-12-18T07:38:44.026Z,-3.13
2022-12-18T07:39:16.418Z,-3.09
2022-12-18T07:39:51.172Z,-3.03
2022-12-18T07:40:23.859Z,-3.00
2022-12-18T07:40:56.135Z,-2.97
2022-12-18T07:41:30.839Z,-2.96